createdAt,value
2022-08-29T00:01:56.437Z,22.88
2022-08-29T00:04:58.552Z,22.84
2022-08-29T00:08:01.948Z,22.80
2022-08-29T00:11:06.591Z,22.88
2022-08-29T00:14:08.855Z,22.96
2022-08-29T00:17:25.642Z,22.85
2022-08-29T00:20:34.106Z,22.90
2022-08-29T00:23:36.881Z,22.85
2022-08-29T00:26:39.296Z,22.88
2022-08-29T00:29:41.359Z,22.73
2022-08-29T00:32:43.543Z,22.81
2022-08-29T00:35:46.789Z,22.69
2022-08-29T00:38:50.189Z,22.78
2022-08-29T00:41:52.253Z,22.62
2022-08-29T00:44:54.773Z,22.75
2022-08-29T00:48:12.949Z,22.63
2022-08-29T00:51:18.900Z,22.70
2022-08-29T00:54:23.134Z,22.65
2022-08-29T00:57:28.508Z,22.54
2022-08-29T01:00:30.981Z,22.56
2022-08-29T01:03:37.016Z,22.58
2022-08-29T01:06:45.598Z,22.66
2022-08-29T01:09:47.943Z,22.70
2022-08-29T01:12:50.226Z,22.65
2022-08-29T01:15:52.647Z,22.47
2022-08-29T01:19:03.037Z,22.50
2022-08-29T01:22:29.861Z,22.46
2022-08-29T01:25:37.931Z,22.48
2022-08-29T01:28:48.181Z,22.44
2022-08-29T01:31:56.859Z,22.49
2022-08-29T01:35:00.369Z,22.37
2022-08-29T01:38:02.482Z,22.28
2022-08-29T01:41:05.597Z,22.29
2022-08-29T01:44:13.620Z,22.40
2022-08-29T01:47:16.095Z,22.38
2022-08-29T01:50:21.387Z,22.26
2022-08-29T01:53:26.080Z,22.33
2022-08-29T01:56:33.939Z,22.20
2022-08-29T01:59:36.761Z,22.23
2022-08-29T02:02:41.080Z,22.33
2022-08-29T02:05:43.873Z,22.21
2022-08-29T02:08:47.386Z,22.17
2022-08-29T02:11:49.972Z,22.19
2022-08-29T02:14:53.571Z,22.12
2022-08-29T02:17:56.310Z,22.10
2022-08-29T02:20:58.802Z,22.17
2022-08-29T02:24:21.333Z,22.08
2022-08-29T02:27:25.030Z,22.09
2022-08-29T02:30:27.161Z,21.98
2022-08-29T02:33:29.566Z,22.04
2022-08-29T02:36:34.319Z,21.98
2022-08-29T02:39:36.421Z,22.07
2022-08-29T02:42:38.472Z,22.03
2022-08-29T02:45:42.250Z,22.08
2022-08-29T02:48:47.587Z,21.91
2022-08-29T02:52:04.504Z,21.97
2022-08-29T02:55:08.318Z,21.89
2022-08-29T02:58:10.397Z,21.89
2022-08-29T03:01:12.539Z,21.84
2022-08-29T03:04:14.651Z,21.88
2022-08-29T03:07:17.017Z,21.88
2022-08-29T03:10:20.132Z,21.81
2022-08-29T03:13:22.992Z,21.81
2022-08-29T03:16:26.712Z,21.66
2022-08-29T03:19:28.872Z,21.69
2022-08-29T03:22:31.463Z,21.66
2022-08-29T03:25:33.818Z,21.76
2022-08-29T03:28:35.880Z,21.69
2022-08-29T03:31:38.023Z,21.64
2022-08-29T03:34:40.345Z,21.63
2022-08-29T03:37:42.413Z,21.65
2022-08-29T03:40:44.501Z,21.65
2022-08-29T03:43:46.845Z,21.65
2022-08-29T03:46:49.134Z,21.57
2022-08-29T03:49:51.243Z,21.53
2022-08-29T03:52:53.423Z,21.51
2022-08-29T03:55:55.635Z,21.46
2022-08-29T03:58:58.500Z,21.57
2022-08-29T04:02:00.961Z,21.54
2022-08-29T04:05:09.898Z,21.42
2022-08-29T04:08:12.020Z,21.45
2022-08-29T04:11:15.999Z,21.42
2022-08-29T04:14:20.833Z,21.39
2022-08-29T04:17:22.897Z,21.38
2022-08-29T04:20:28.802Z,21.45
2022-08-29T04:23:31.767Z,21.44
2022-08-29T04:26:37.389Z,21.36
2022-08-29T04:29:39.777Z,21.32
2022-08-29T04:32:42.248Z,21.22
2022-08-29T04:35:44.661Z,21.14
2022-08-29T04:38:46.710Z,21.21
2022-08-29T04:41:48.792Z,21.14
2022-08-29T04:44:51.216Z,21.16
2022-08-29T04:47:53.551Z,21.22
2022-08-29T04:51:01.303Z,21.01
2022-08-29T04:54:04.830Z,20.84
2022-08-29T04:57:06.970Z,20.76
2022-08-29T05:00:13.895Z,20.70
2022-08-29T05:03:16.087Z,20.96
2022-08-29T05:06:19.739Z,20.78
2022-08-29T05:09:24.652Z,20.61
2022-08-29T05:12:28.913Z,20.69
2022-08-29T05:15:31.512Z,20.64
2022-08-29T05:18:33.920Z,20.48
2022-08-29T05:21:38.110Z,20.42
2022-08-29T05:24:41.006Z,20.53
2022-08-29T05:27:43.086Z,20.45
2022-08-29T05:30:45.194Z,20.34
2022-08-29T05:33:47.423Z,20.55
2022-08-29T05:36:49.462Z,20.61
2022-08-29T05:39:52.205Z,20.58
2022-08-29T05:42:54.425Z,20.66
2022-08-29T05:46:05.891Z,20.56
2022-08-29T05:49:08.319Z,20.70
2022-08-29T05:52:11.823Z,20.75
2022-08-29T05:55:13.952Z,20.73
2022-08-29T05:58:16.247Z,20.72
2022-08-29T06:01:29.668Z,20.73
2022-08-29T06:04:35.559Z,20.80
2022-08-29T06:07:37.685Z,20.74
2022-08-29T06:10:41.974Z,20.73
2022-08-29T06:13:44.379Z,20.74
2022-08-29T06:16:46.575Z,20.70
2022-08-29T06:19:51.764Z,20.80
2022-08-29T06:22:54.011Z,20.75
2022-08-29T06:25:57.524Z,20.88
2022-08-29T06:28:59.764Z,20.91
2022-08-29T06:32:01.844Z,20.95
2022-08-29T06:35:05.356Z,20.91
2022-08-29T06:38:12.035Z,20.89
2022-08-29T06:41:17.182Z,21.01
2022-08-29T06:44:21.208Z,21.13
2022-08-29T06:47:23.286Z,21.20
2022-08-29T06:50:25.495Z,21.16
2022-08-29T06:53:32.251Z,21.27
2022-08-29T06:56:36.687Z,21.34
2022-08-29T06:59:39.441Z,21.62
2022-08-29T07:02:42.096Z,21.77
2022-08-29T07:05:50.481Z,21.81
2022-08-29T07:08:55.641Z,21.44
2022-08-29T07:11:58.385Z,21.64
2022-08-29T07:15:02.034Z,21.88
2022-08-29T07:18:06.381Z,21.80
2022-08-29T07:21:10.498Z,21.80
2022-08-29T07:24:13.461Z,21.89
2022-08-29T07:27:15.941Z,21.95
2022-08-29T07:30:18.189Z,22.10
2022-08-29T07:33:20.311Z,22.21
2022-08-29T07:36:22.530Z,22.11
2022-08-29T07:39:24.768Z,22.12
2022-08-29T07:42:27.844Z,22.11
2022-08-29T07:45:29.946Z,22.11
2022-08-29T07:48:32.026Z,22.19
2022-08-29T07:51:35.235Z,22.21
2022-08-29T07:54:37.414Z,22.35
2022-08-29T07:57:39.965Z,22.47
2022-08-29T08:00:42.527Z,22.34
2022-08-29T08:03:44.606Z,22.48
2022-08-29T08:06:47.272Z,22.83
2022-08-29T08:09:49.327Z,22.97
2022-08-29T08:12:51.700Z,23.00
2022-08-29T08:15:55.376Z,23.06
2022-08-29T08:18:57.628Z,23.09
2022-08-29T08:21:59.809Z,23.09
2022-08-29T08:25:02.539Z,23.11
2022-08-29T08:28:04.642Z,23.16
2022-08-29T08:31:09.054Z,23.21
2022-08-29T08:34:15.498Z,23.23
2022-08-29T08:37:24.216Z,23.23
2022-08-29T08:40:31.563Z,23.30
2022-08-29T08:43:48.887Z,23.36
2022-08-29T08:46:58.319Z,23.40
2022-08-29T08:50:27.159Z,23.39
2022-08-29T08:53:39.653Z,23.41
2022-08-29T08:56:48.856Z,23.41
2022-08-29T08:59:57.541Z,23.40
2022-08-29T09:03:38.493Z,23.44
2022-08-29T09:06:53.327Z,23.44
2022-08-29T09:10:21.215Z,23.45
2022-08-29T09:13:48.078Z,23.47
2022-08-29T09:16:54.363Z,23.47
2022-08-29T09:19:57.526Z,23.46
2022-08-29T09:23:02.859Z,23.55
2022-08-29T09:26:08.060Z,23.50
2022-08-29T09:29:13.800Z,23.50
2022-08-29T09:32:22.155Z,23.57
2022-08-29T09:35:29.594Z,23.56
2022-08-29T09:38:31.657Z,23.59
2022-08-29T09:41:33.738Z,23.68
2022-08-29T09:44:36.360Z,23.72
2022-08-29T09:47:38.452Z,23.70
2022-08-29T09:50:40.688Z,23.71
2022-08-29T09:53:43.614Z,23.69
2022-08-29T09:56:56.820Z,23.68
2022-08-29T10:00:24.929Z,23.71
2022-08-29T10:03:33.019Z,23.72
2022-08-29T10:06:47.232Z,23.73
2022-08-29T10:10:22.895Z,23.74
2022-08-29T10:13:47.012Z,23.75
2022-08-29T10:17:23.968Z,23.79
2022-08-29T10:20:47.438Z,23.79
2022-08-29T10:24:15.999Z,23.79
2022-08-29T10:27:39.476Z,23.83
2022-08-29T10:30:57.299Z,23.88
2022-08-29T10:34:28.140Z,23.90
2022-08-29T10:37:54.779Z,23.92
2022-08-29T10:41:26.276Z,23.91
2022-08-29T10:44:45.820Z,23.94
2022-08-29T10:48:11.530Z,23.92
2022-08-29T10:51:47.555Z,23.94
2022-08-29T10:55:05.060Z,23.98
2022-08-29T10:58:17.065Z,23.98
2022-08-29T11:01:27.911Z,23.95
2022-08-29T11:04:45.024Z,23.94
2022-08-29T11:08:01.375Z,23.97
2022-08-29T11:11:03.820Z,23.97
2022-08-29T11:14:11.435Z,24.01
2022-08-29T11:17:16.539Z,23.99
2022-08-29T11:20:24.128Z,24.02
2022-08-29T11:23:28.831Z,24.08
2022-08-29T11:26:49.931Z,24.15
2022-08-29T11:30:05.797Z,24.21
2022-08-29T11:33:35.360Z,24.25
2022-08-29T11:36:50.670Z,24.21
2022-08-29T11:40:15.101Z,24.17
2022-08-29T11:43:22.684Z,24.25
2022-08-29T11:46:53.306Z,24.28
2022-08-29T11:50:05.424Z,24.33
2022-08-29T11:53:16.760Z,24.38
2022-08-29T11:56:28.258Z,24.41
2022-08-29T11:59:51.646Z,24.42
2022-08-29T12:02:53.724Z,24.53
2022-08-29T12:06:06.715Z,24.62
2022-08-29T12:09:24.701Z,24.69
2022-08-29T12:12:51.434Z,24.60
2022-08-29T12:15:54.651Z,24.59
2022-08-29T12:18:57.551Z,24.72
2022-08-29T12:22:01.113Z,24.73
2022-08-29T12:25:27.046Z,24.76
2022-08-29T12:29:13.113Z,24.85
2022-08-29T12:33:10.817Z,24.90
2022-08-29T12:36:25.503Z,25.04
2022-08-29T12:39:56.967Z,25.08
2022-08-29T12:43:27.458Z,25.08
2022-08-29T12:46:40.425Z,25.16
2022-08-29T12:49:51.527Z,25.19
2022-08-29T12:53:15.702Z,25.28
2022-08-29T12:56:22.023Z,25.29
2022-08-29T12:59:24.502Z,25.29
2022-08-29T13:02:36.146Z,25.29
2022-08-29T13:05:40.355Z,25.34
2022-08-29T13:08:43.211Z,25.39
2022-08-29T13:11:45.249Z,25.49
2022-08-29T13:15:00.098Z,25.52
2022-08-29T13:18:02.406Z,25.54
2022-08-29T13:21:11.375Z,25.64
2022-08-29T13:24:19.466Z,25.58
2022-08-29T13:27:22.536Z,25.66
2022-08-29T13:30:25.590Z,25.77
2022-08-29T13:33:34.788Z,25.82
2022-08-29T13:36:44.783Z,25.83
2022-08-29T13:39:47.601Z,25.76
2022-08-29T13:42:49.652Z,25.75
2022-08-29T13:46:06.060Z,25.91
2022-08-29T13:49:09.713Z,25.95
2022-08-29T13:52:13.163Z,25.95
2022-08-29T13:55:15.272Z,26.03
2022-08-29T13:58:20.678Z,25.99
2022-08-29T14:02:08.633Z,26.07
2022-08-29T14:04:49.959Z,25.94
2022-08-29T14:07:52.084Z,25.92
2022-08-29T14:10:54.234Z,25.96
2022-08-29T14:13:56.281Z,26.02
2022-08-29T14:16:58.825Z,25.96
2022-08-29T14:20:00.919Z,25.98
2022-08-29T14:23:03.854Z,26.06
2022-08-29T14:26:06.099Z,26.16
2022-08-29T14:29:08.866Z,26.08
2022-08-29T14:32:11.024Z,26.21
2022-08-29T14:35:26.015Z,26.16
2022-08-29T14:38:29.115Z,26.15
2022-08-29T14:41:31.415Z,26.06
2022-08-29T14:44:33.538Z,26.08
2022-08-29T14:47:35.856Z,25.98
2022-08-29T14:50:38.087Z,26.02
2022-08-29T14:53:51.377Z,26.08
2022-08-29T14:56:53.910Z,26.12
2022-08-29T14:59:56.057Z,26.16
2022-08-29T15:02:59.886Z,26.08
2022-08-29T15:06:04.865Z,26.07
2022-08-29T15:09:07.287Z,26.23
2022-08-29T15:12:13.154Z,26.48
2022-08-29T15:15:15.419Z,26.91
2022-08-29T15:18:48.053Z,27.42
2022-08-29T15:21:41.213Z,27.32
2022-08-29T15:24:43.969Z,26.82
2022-08-29T15:27:46.789Z,26.66
2022-08-29T15:30:49.673Z,26.53
2022-08-29T15:33:51.834Z,26.50
2022-08-29T15:36:55.679Z,26.47
2022-08-29T15:39:57.998Z,26.33
2022-08-29T15:43:00.268Z,26.20
2022-08-29T15:46:02.450Z,26.17
2022-08-29T15:49:07.209Z,26.06
2022-08-29T15:52:09.940Z,26.02
2022-08-29T15:55:14.265Z,26.06
2022-08-29T15:58:16.545Z,26.06
2022-08-29T16:01:19.120Z,26.05
2022-08-29T16:04:23.433Z,26.06
2022-08-29T16:07:28.927Z,25.99
2022-08-29T16:10:32.706Z,26.04
2022-08-29T16:13:34.877Z,26.05
2022-08-29T16:16:37.332Z,25.96
2022-08-29T16:19:41.663Z,25.97
2022-08-29T16:22:43.782Z,25.97
2022-08-29T16:25:46.267Z,25.98
2022-08-29T16:28:49.225Z,26.02
2022-08-29T16:31:51.740Z,26.04
2022-08-29T16:34:53.881Z,26.09
2022-08-29T16:38:02.441Z,26.13
2022-08-29T16:41:17.601Z,26.09
2022-08-29T16:44:26.401Z,26.08
2022-08-29T16:47:28.446Z,26.15
2022-08-29T16:50:30.539Z,26.04
2022-08-29T16:53:36.737Z,25.97
2022-08-29T16:56:40.786Z,26.13
2022-08-29T16:59:43.019Z,26.08
2022-08-29T17:02:45.125Z,26.01
2022-08-29T17:05:47.462Z,26.05
2022-08-29T17:08:49.509Z,25.98
2022-08-29T17:11:52.977Z,25.98
2022-08-29T17:14:55.585Z,25.92
2022-08-29T17:17:58.864Z,25.83
2022-08-29T17:21:01.168Z,25.81
2022-08-29T17:24:06.718Z,25.78
2022-08-29T17:27:10.301Z,25.84
2022-08-29T17:30:12.847Z,25.91
2022-08-29T17:33:20.727Z,25.90
2022-08-29T17:36:23.119Z,25.89
2022-08-29T17:39:25.292Z,25.89
2022-08-29T17:42:28.863Z,25.90
2022-08-29T17:45:31.369Z,25.89
2022-08-29T17:48:33.644Z,25.86
2022-08-29T17:51:36.896Z,25.82
2022-08-29T17:54:38.993Z,25.79
2022-08-29T17:57:41.488Z,25.78
2022-08-29T18:00:43.627Z,25.77
2022-08-29T18:03:46.816Z,25.66
2022-08-29T18:06:49.534Z,25.57
2022-08-29T18:09:51.611Z,25.49
2022-08-29T18:12:53.683Z,25.47
2022-08-29T18:15:55.741Z,25.44
2022-08-29T18:18:58.029Z,25.35
2022-08-29T18:22:00.106Z,25.31
2022-08-29T18:25:02.329Z,25.27
2022-08-29T18:28:06.656Z,25.25
2022-08-29T18:31:09.398Z,25.22
2022-08-29T18:34:15.144Z,25.20
2022-08-29T18:37:17.272Z,25.16
2022-08-29T18:40:19.930Z,25.14
2022-08-29T18:43:22.608Z,25.09
2022-08-29T18:46:25.209Z,25.06
2022-08-29T18:49:46.427Z,25.03
2022-08-29T18:52:48.514Z,25.01
2022-08-29T18:55:52.547Z,24.99
2022-08-29T18:58:58.994Z,24.97
2022-08-29T19:02:01.293Z,24.93
2022-08-29T19:05:03.709Z,24.91
2022-08-29T19:08:05.884Z,24.90
2022-08-29T19:11:11.193Z,24.90
2022-08-29T19:14:13.327Z,24.87
2022-08-29T19:17:16.648Z,24.86
2022-08-29T19:20:40.644Z,24.83
2022-08-29T19:23:46.356Z,24.79
2022-08-29T19:26:48.563Z,24.74
2022-08-29T19:29:51.067Z,24.76
2022-08-29T19:32:56.371Z,24.74
2022-08-29T19:35:58.470Z,24.70
2022-08-29T19:39:00.727Z,24.69
2022-08-29T19:42:03.100Z,24.63
2022-08-29T19:45:08.600Z,24.63
2022-08-29T19:48:15.142Z,24.60
2022-08-29T19:51:18.491Z,24.53
2022-08-29T19:54:20.855Z,24.57
2022-08-29T19:57:22.968Z,24.50
2022-08-29T20:00:25.484Z,24.46
2022-08-29T20:03:27.753Z,24.43
2022-08-29T20:06:29.890Z,24.48
2022-08-29T20:09:32.143Z,24.47
2022-08-29T20:12:34.995Z,24.42
2022-08-29T20:15:37.064Z,24.45
2022-08-29T20:18:40.460Z,24.35
2022-08-29T20:21:44.037Z,24.27
2022-08-29T20:24:46.180Z,24.30
2022-08-29T20:27:48.504Z,24.29
2022-08-29T20:30:50.567Z,24.23
2022-08-29T20:33:52.661Z,24.24
2022-08-29T20:37:10.484Z,24.19
2022-08-29T20:40:13.451Z,24.14
2022-08-29T20:43:16.740Z,24.16
2022-08-29T20:46:18.865Z,24.13
2022-08-29T20:49:23.602Z,24.14
2022-08-29T20:52:25.637Z,24.13
2022-08-29T20:55:27.697Z,24.15
2022-08-29T20:58:30.030Z,24.10
2022-08-29T21:01:34.539Z,24.09
2022-08-29T21:04:55.746Z,24.12
2022-08-29T21:07:57.790Z,24.14
2022-08-29T21:11:00.975Z,24.12
2022-08-29T21:14:03.304Z,24.10
2022-08-29T21:17:05.723Z,24.15
2022-08-29T21:20:08.633Z,24.17
2022-08-29T21:23:12.294Z,24.19
2022-08-29T21:26:15.185Z,24.16
2022-08-29T21:29:20.175Z,24.20
2022-08-29T21:32:22.467Z,24.11
2022-08-29T21:35:24.767Z,24.13
2022-08-29T21:38:28.631Z,24.12
2022-08-29T21:41:31.802Z,24.08
2022-08-29T21:44:34.273Z,24.06
2022-08-29T21:47:37.557Z,24.09
2022-08-29T21:50:39.635Z,24.03
2022-08-29T21:53:41.824Z,24.03
2022-08-29T21:56:44.857Z,24.00
2022-08-29T21:59:47.648Z,23.90
2022-08-29T22:02:49.962Z,23.92
2022-08-29T22:05:54.233Z,23.91
2022-08-29T22:08:57.529Z,23.86
2022-08-29T22:12:01.928Z,23.88
2022-08-29T22:15:23.182Z,23.75
2022-08-29T22:18:25.582Z,23.83
2022-08-29T22:21:30.145Z,23.81
2022-08-29T22:24:32.341Z,23.81
2022-08-29T22:27:34.956Z,23.77
2022-08-29T22:30:37.883Z,23.75
2022-08-29T22:33:40.332Z,23.72
2022-08-29T22:36:43.241Z,23.75
2022-08-29T22:39:45.360Z,23.79
2022-08-29T22:42:47.543Z,23.70
2022-08-29T22:45:50.646Z,23.73
2022-08-29T22:48:55.410Z,23.69
2022-08-29T22:51:57.588Z,23.68
2022-08-29T22:54:59.697Z,23.57
2022-08-29T22:58:01.771Z,23.58
2022-08-29T23:01:05.143Z,23.58
2022-08-29T23:04:08.240Z,23.54
2022-08-29T23:07:12.235Z,23.52
2022-08-29T23:10:15.200Z,23.51
2022-08-29T23:13:17.643Z,23.47
2022-08-29T23:16:20.342Z,23.47
2022-08-29T23:19:22.674Z,23.49
2022-08-29T23:22:24.923Z,23.38
2022-08-29T23:25:27.038Z,23.35
2022-08-29T23:28:29.097Z,23.36
2022-08-29T23:31:31.407Z,23.38
2022-08-29T23:34:33.767Z,23.38
2022-08-29T23:37:35.882Z,23.26
2022-08-29T23:40:38.220Z,23.28
2022-08-29T23:43:41.052Z,23.35
2022-08-29T23:46:43.371Z,23.34
2022-08-29T23:49:45.740Z,23.28
2022-08-29T23:52:47.821Z,23.26
2022-08-29T23:55:51.024Z,23.27
2022-08-29T23:58:55.758Z,23.14
